x

9410230 - La Jolla, Ca (ljac1) Weather Station

7:54 - Tue 21st Apr 2015 All times are PDT. -7 hours from GMT.

  • Wind
    6mph, 7mph gusts
  • Sea Temp 62°f
  • Luft Temp 62°f
  • Sea Pressure 1013.6mb
  • 9410230 - La Jolla, Ca
  • 9410230 - La Jolla, Ca

More Historic Weather Station data

Upgrade to MSW Pro to gain access to the past 30 days of data for over 8000 Wavebouys and Weather Stations around the globe.

Join Pro

Comparision Forecast

View Surf forecast
   
Di 04/21 7:54 6 7 mph 1013.6mb 62f 62f
7:48 5 6 mph 1013.6mb 61f 62f
7:42 5 6 mph 1013.5mb 60f 62f
7:36 5 6 mph 1013.4mb 60f 62f
7:30 5 6 mph 1013.3mb 60f 62f
7:24 5 8 mph 1013.2mb 60f 61f
7:18 6 7 mph 1013.2mb 61f 61f
7:12 6 7 mph 1013.1mb 61f 61f
7:06 6 8 mph 1013.1mb 62f 61f
7:00 7 8 mph 1013.1mb 62f 61f
6:54 7 8 mph 1013.1mb 62f 61f
6:48 6 7 mph 1013.1mb 62f 61f
6:42 6
mph
1013.1mb 62f 61f
6:36 6 7 mph 1013.1mb 62f 61f
6:30 6 7 mph 1013mb 62f 61f
6:24 5 6 mph 1013mb 62f 61f
6:18 3 5 mph 1012.9mb 60f 62f
6:12 3 6 mph 1012.8mb 60f 62f
6:06 3 8 mph 1012.8mb 59f 62f
6:00 8 9 mph 1012.7mb 58f 61f
5:54 5 6 mph 1012.7mb 58f 61f
5:48 6
mph
1012.6mb 58f 61f
5:42 3 6 mph 1012.6mb 58f 61f
5:36 5 8 mph 1012.6mb 58f 61f
5:30 6 8 mph 1012.5mb 59f 61f
5:24 6 9 mph 1012.5mb 59f 61f
5:18 8 10 mph 1012.5mb 59f 61f
5:12 6 7 mph 1012.5mb 59f 61f
5:06 6 7 mph 1012.4mb 59f 61f
5:00 6
mph
1012.3mb 59f 61f
4:54 6
mph
1012.3mb 59f 61f
4:48 5 6 mph 1012.3mb 59f 61f
4:42 3 5 mph 1012.3mb 59f 61f
4:36 3 7 mph 1012.3mb 60f 61f
4:30 5 6 mph 1012.2mb 60f 61f
4:24 5 6 mph 1012.3mb 60f 61f
4:18 5 6 mph 1012.3mb 60f 61f
4:12 3 5 mph 1012.3mb 60f 61f
4:06 5 7 mph 1012.4mb 60f 61f
4:00 6 7 mph 1012.4mb 60f 61f
3:54 6 7 mph 1012.4mb 61f 61f
3:48 5 6 mph 1012.4mb 61f 61f
3:42 6 7 mph 1012.3mb 62f 61f
3:36 5 6 mph 1012.3mb 62f 61f
3:30 3 6 mph 1012.3mb 62f 61f
3:24 3 6 mph 1012.2mb 62f 61f
3:18 5 7 mph 1012.2mb 63f 61f
3:12 3 6 mph 1012.2mb 63f 61f
3:06 2 3 mph 1012.2mb 63f 61f
3:00 3 6 mph 1012.2mb 63f 61f
2:54 3 5 mph 1012.2mb 63f 61f
2:48 3 7 mph 1012.2mb 63f 61f
2:42 6
mph
1012.2mb 63f 61f
2:36 5 6 mph 1012.2mb 63f 61f
2:30 6
mph
1012.2mb 63f -
2:24 5 7 mph 1012.2mb 64f -
2:18 6 7 mph 1012.3mb 64f 60f
2:12 3 6 mph 1012.3mb 64f 61f
2:06 2 3 mph 1012.4mb 64f 61f
2:00 1 2 mph 1012.4mb 64f 61f
1:54 1 3 mph 1012.5mb 64f 61f
1:48 3 5 mph 1012.5mb 64f 61f
1:42 3 5 mph 1012.5mb 64f 61f
1:36 2 3 mph 1012.6mb 64f 60f
1:30 2 3 mph 1012.6mb 64f 61f
1:24 2 3 mph 1012.7mb 64f 61f
1:18 1 5 mph 1012.7mb 64f 60f
1:12 3 5 mph 1012.7mb 64f 61f
1:06 2 5 mph 1012.8mb 64f 61f
1:00 3
mph
1012.8mb 64f 61f
12:54 2
mph
1012.9mb 64f 60f
12:48 2
mph
1012.9mb 64f 60f
12:42 2
mph
1012.9mb 64f 60f
12:36 2 3 mph 1012.9mb 64f 60f
12:30 1 2 mph 1012.9mb 64f 60f
12:24 1 3 mph 1012.9mb 64f 60f
12:18 2 3 mph 1013mb 64f 61f
12:12 2 5 mph 1013mb 64f 60f
12:06 3 5 mph 1013mb 64f 60f
12:00 5 7 mph 1013mb 64f 60f
Mo 04/20 11:54 6 7 mph 1013mb 64f 60f
11:48 3 6 mph 1013mb 64f 60f
11:42 5 6 mph 1013mb 64f 60f
11:36 3 6 mph 1012.9mb 64f 60f
11:30 5 7 mph 1013mb 64f 60f
11:24 7 8 mph 1013mb 64f 60f
11:18 5 6 mph 1012.9mb 63f 61f
11:12 2 3 mph 1012.9mb 63f 60f
11:06 2 7 mph 1012.9mb 63f 60f
11:00 5 8 mph 1013mb 61f 60f
10:54 7 8 mph 1012.9mb 55f 60f
10:48 5 6 mph 1012.9mb 54f 60f
10:42 3 6 mph 1012.9mb 54f 60f
10:36 5 6 mph 1012.9mb 54f 60f
10:30 2 3 mph 1012.9mb 54f 60f
10:24 1 3 mph 1012.9mb 55f 60f
10:18 3
mph
1012.9mb 55f 60f
10:12 3 5 mph 1012.9mb 55f 60f
10:06 2 6 mph 1013mb 55f 60f
10:00 5 6 mph 1013mb 55f 60f
9:54 2 3 mph 1013mb 55f 60f
9:48 2
mph
1012.9mb 55f 60f
9:42 1 2 mph 1012.9mb 55f 60f
9:36  -  2 mph 1013mb 55f 60f
9:30 1 2 mph 1012.9mb 55f 60f
9:24 2 3 mph 1012.9mb 55f 60f
9:18 3 5 mph 1012.8mb 55f 60f
9:12 2 3 mph 1012.8mb 55f 60f
9:06 2 3 mph 1012.7mb 55f 60f
9:00 2 5 mph 1012.7mb 56f 60f
8:54 3 5 mph 1012.6mb 56f 60f
8:48 1 2 mph 1012.5mb 56f 60f
8:42 1 2 mph 1012.4mb 57f 60f
8:36 1
mph
1012.4mb 57f 60f
8:30 1
mph
1012.3mb 58f 60f
8:24 2 3 mph 1012.3mb 58f 60f
8:18 2 5 mph 1012.2mb 59f 60f
8:12 3 6 mph 1012.2mb 59f 60f
8:06 5 6 mph 1012.1mb 59f 60f
8:00 6 7 mph 1012.1mb 59f 60f
7:54 5
mph
1012mb 59f 61f
7:48 2 3 mph 1012mb 59f 61f
7:42 2 5 mph 1011.9mb 59f 61f
7:36 3 5 mph 1011.9mb 60f 60f
7:30 5 7 mph 1011.8mb 61f 60f
7:24 2 3 mph 1011.7mb 62f 61f
7:18 2 3 mph 1011.6mb 63f 60f
7:12 2 3 mph 1011.6mb 64f 60f
7:06 2 7 mph 1011.6mb 64f 61f
7:00 3 6 mph 1011.6mb 64f 61f
6:54 6 7 mph 1011.5mb 64f 61f
6:48 5 6 mph 1011.5mb 64f 61f
6:42 2 5 mph 1011.5mb 65f 61f
6:36 5 6 mph 1011.5mb 65f 61f
6:30 6 7 mph 1011.4mb 65f 61f
6:24 5 8 mph 1011.4mb 65f 61f
6:18 5 6 mph 1011.4mb 65f 61f
6:12 6 7 mph 1011.4mb 65f 61f
6:06 5 7 mph 1011.3mb 64f 61f
6:00 6 7 mph 1011.4mb 63f 61f
5:54 5 7 mph 1011.4mb 63f 62f
5:48 6 8 mph 1011.4mb 62f 62f
5:42 6 7 mph 1011.4mb 62f 62f
5:36 5 7 mph 1011.4mb 61f 62f
5:30 6 8 mph 1011.4mb 61f 62f
5:24 6 7 mph 1011.4mb 61f 62f
5:18 5 7 mph 1011.5mb 60f 62f
5:12 6 7 mph 1011.5mb 61f 62f
5:06 6 8 mph 1011.5mb 60f 61f
5:00 7 9 mph 1011.6mb 60f 62f
4:54 7 9 mph 1011.5mb 60f 62f
4:48 7 9 mph 1011.5mb 61f 62f
4:42 9 10 mph 1011.6mb 61f 62f
4:36 8 11 mph 1011.6mb 61f 61f
4:30 8 11 mph 1011.6mb 61f 61f
4:24 9 11 mph 1011.5mb 62f 61f
4:18 10 13 mph 1011.5mb 62f 61f
4:12 9 13 mph 1011.5mb 62f 61f
4:06 9 14 mph 1011.6mb 62f 61f
4:00 10 11 mph 1011.6mb 62f 61f
3:54 10 14 mph 1011.5mb 62f 61f
3:48 10 13 mph 1011.6mb 63f 61f
3:42 9 13 mph 1011.6mb 62f 62f
3:36 10 11 mph 1011.6mb 62f 61f
3:30 9 11 mph 1011.6mb 62f 62f
3:24 8 10 mph 1011.6mb 62f 62f
3:18 9 10 mph 1011.6mb 63f 62f
3:12 7 9 mph 1011.7mb 63f 62f
3:06 6 8 mph 1011.6mb 63f 62f
3:00 6 8 mph 1011.7mb 64f 63f
2:54 6 8 mph 1011.6mb 64f 63f
2:48 7 9 mph 1011.6mb 64f 62f
2:42 6 9 mph 1011.7mb 64f 63f
2:36 7 8 mph 1011.8mb 64f 63f
2:30 6 9 mph 1011.8mb 64f 62f
2:24 7 10 mph 1011.8mb 64f 62f
2:18 7 10 mph 1011.9mb 64f 63f
2:12 7 10 mph 1011.9mb 64f 62f
2:06 7 10 mph 1011.9mb 64f 62f
2:00 8 11 mph 1012mb 64f 62f
1:54 8 9 mph 1012mb 64f 62f
1:48 7 10 mph 1012.1mb 64f 62f
1:42 8 10 mph 1012.1mb 64f 62f
1:36 6 11 mph 1012.1mb 64f 63f
1:30 6 9 mph 1012.1mb 63f 63f
1:24 8 10 mph 1012.1mb 63f 62f
1:18 7 10 mph 1012.1mb 64f 62f
1:12 8 10 mph 1012.1mb 64f 62f
1:06 8 9 mph 1012.1mb 64f 62f
1:00 7 10 mph 1012.1mb 64f 62f
12:54 7 9 mph 1012.2mb 64f 62f
12:48 7 9 mph 1012.3mb 63f 62f
12:42 6 8 mph 1012.3mb 63f 62f
12:36 8 11 mph 1012.4mb 63f 62f
12:30 5 10 mph 1012.5mb 63f 62f
12:24 6 9 mph 1012.5mb 63f 62f
12:18 7 13 mph 1012.6mb 63f 62f
12:12 8 10 mph 1012.6mb 63f 62f
12:06 7 11 mph 1012.6mb 63f 62f
12:00 7 9 mph 1012.7mb 63f 62f
11:54 9 10 mph 1012.7mb 63f 62f
11:48 5 7 mph 1012.8mb 63f 63f
11:42 7 8 mph 1012.8mb 63f 62f
11:36 6 8 mph 1012.8mb 63f 62f
11:30 3 8 mph 1012.8mb 62f 62f
11:24 6 8 mph 1012.9mb 62f 63f
11:18 5 7 mph 1012.9mb 62f 62f
11:12 6
mph
1013mb 62f 62f
11:06 5 7 mph 1012.8mb 62f 62f
11:00 5 7 mph 1012.8mb 61f 62f
10:54 6 7 mph 1012.9mb 60f 62f
10:48 5 6 mph 1013mb 60f 63f
10:42 3 6 mph 1013mb 59f 63f
10:36 3 5 mph 1013mb 57f 62f
10:30 5 7 mph 1013.1mb 57f 62f
10:24 6 8 mph 1013.2mb 56f 62f
10:18 5 6 mph 1013.2mb 57f 63f
10:12 5 6 mph 1013.2mb 57f 62f
10:06 6 7 mph 1013.2mb 57f 62f
10:00 3
mph
1013mb 57f 63f
9:54 2 6 mph 1013mb 57f 63f
9:48 6 7 mph 1012.9mb 57f 62f
9:42 6 8 mph 1012.9mb 58f 61f
9:36 6 7 mph 1012.8mb 57f 61f
9:30 5 6 mph 1012.8mb 58f 62f
9:24 6 7 mph 1012.8mb 58f 62f
9:18 5 6 mph 1012.9mb 56f 62f
9:12 2 3 mph 1012.9mb 55f 63f
9:06 3 8 mph 1012.9mb 54f 62f
9:00 2 5 mph 1012.8mb 54f 61f
8:54 5 6 mph 1012.7mb 54f 61f
8:48 5 6 mph 1012.6mb 54f 62f
8:42 3
mph
1012.6mb 54f 62f
8:36 3 5 mph 1012.7mb 54f 61f
8:30 3 5 mph 1012.7mb 54f 61f
8:24 2 3 mph 1012.8mb 55f 62f
8:18 1 2 mph 1012.8mb 55f 62f
8:12 3 5 mph 1012.8mb 55f 61f
8:06 5
mph
1012.8mb 55f 61f
8:00 3 5 mph 1012.7mb 55f 61f
7:54 2 3 mph 1012.7mb 55f 61f
7:48 2
mph
1012.6mb 56f 61f
7:42 1 2 mph 1012.6mb 57f 61f
7:36  -  1 mph 1012.5mb 57f 61f
7:30 2 3 mph 1012.4mb 58f 61f
7:24 3 5 mph 1012.3mb 59f 60f
7:18 2 5 mph 1012.3mb 59f 60f
7:12 6 7 mph 1012.3mb 59f 60f
7:06 3 6 mph 1012.3mb 59f 60f
7:00 2 5 mph 1012.3mb 60f 60f
6:54 3 5 mph 1012.3mb 60f 60f
6:48  -  mph 1012.2mb 61f 60f
6:42  -  5 mph 1012.2mb 61f 60f
6:36 2 3 mph 1012.1mb 61f 60f
6:30 2 7 mph 1012.1mb 60f 60f
6:24 5 6 mph 1012mb 60f 60f
6:18 6
mph
1011.9mb 60f 60f
6:12 5 6 mph 1011.9mb 60f 60f
6:06 5 7 mph 1011.9mb 60f 60f
6:00 3 6 mph 1011.9mb 60f 60f
5:54 6 7 mph 1011.9mb 60f 60f
5:48 5 6 mph 1011.9mb 61f 60f
5:42 3 5 mph 1011.9mb 60f 60f
5:36 3 5 mph 1011.9mb 60f 60f
5:30 3
mph
1011.9mb 61f 60f
5:24 2 5 mph 1012mb 60f 60f
5:18 3 8 mph 1011.9mb 60f 60f
5:12 6 8 mph 1011.8mb 59f 60f
5:06 3 7 mph 1011.9mb 59f 61f
5:00 7 8 mph 1011.8mb 59f 60f
4:54 6 7 mph 1011.9mb 59f 61f
4:48 6 8 mph 1011.9mb 59f 61f
4:42 5 6 mph 1012mb 59f 60f
4:36 5 6 mph 1012mb 59f 61f
4:30 5 7 mph 1012.1mb 59f 61f
4:24 5 7 mph 1012.1mb 59f 61f
4:18 3 6 mph 1012.2mb 59f 61f
4:12 6 9 mph 1012.2mb 59f 61f
4:06 7 9 mph 1012.2mb 59f 61f
4:00 6 7 mph 1012.2mb 59f 61f
3:54 6 8 mph 1012.3mb 59f 61f
3:48 7 8 mph 1012.3mb 59f 61f
3:42 7 10 mph 1012.3mb 59f 61f
3:36 9 10 mph 1012.4mb 59f 61f
3:30 9 11 mph 1012.4mb 59f 61f
3:24 6 7 mph 1012.4mb 59f 61f
3:18 6
mph
1012.3mb 59f 61f
2:42 6 8 mph 1012.4mb - -
2:36 6 7 mph 1012.4mb - -
2:30 6 7 mph 1012.4mb 61f 60f
2:24 5 6 mph 1012.4mb 61f 60f
2:18 5 6 mph 1012.5mb 62f 60f
2:12 5
mph
1012.5mb 62f 60f
2:06 5
mph
1012.6mb 63f 60f
2:00 5
mph
1012.7mb 63f 61f
1:54 3 6 mph 1012.7mb 64f 61f
1:48 2 3 mph 1012.8mb 64f 61f
1:42 3 5 mph 1012.9mb 64f 61f
1:36 2 5 mph 1013mb 64f 61f
1:30 5 6 mph 1013mb 64f 61f
1:24 5 6 mph 1013mb 64f 61f
1:18 5 6 mph 1013mb 64f 61f
1:12 3 6 mph 1013mb 64f 61f
1:06 5 6 mph 1013mb 64f 61f
1:00 3 6 mph 1013.1mb 64f 61f
12:54 3 6 mph 1013.1mb 64f 61f
12:48 6 7 mph 1013.1mb 64f 61f
12:42 3 5 mph 1013.1mb 64f 61f
12:36 3 6 mph 1013.1mb 64f 61f
12:30 6 7 mph 1013.2mb 64f 61f
12:24 3 5 mph 1013.2mb 64f 61f
12:18 3 6 mph 1013.2mb 64f 61f
12:12 3 6 mph 1013.2mb 64f 61f
12:06 2 5 mph 1013.2mb 64f 61f
12:00 3 7 mph 1013.2mb 64f 61f
So 04/19 11:54 2 5 mph 1013.1mb 64f 61f
11:48 3 5 mph 1013.2mb - 61f
11:42 3 7 mph 1013.1mb - 61f
11:36 6 8 mph 1013.1mb - 61f
11:30 5 7 mph 1013.1mb 64f 61f
11:24 5 6 mph 1013.1mb 64f 61f
11:18 5 6 mph 1013.2mb 63f 61f
11:12 6 7 mph 1013.1mb 63f 61f
11:06 6 8 mph 1013.1mb 63f 61f
11:00 7 9 mph 1013.1mb 63f 61f
10:54 6 8 mph 1013.1mb 63f 61f
10:48 6 7 mph 1013.1mb 63f 61f
10:42 3 7 mph 1013.1mb 63f 61f
10:36 5 6 mph 1013.1mb 63f 61f
10:30 2 3 mph 1013mb 63f 61f
10:24 3 6 mph 1013mb 63f 61f
10:18 2 5 mph 1013mb 63f 61f
10:12 2 3 mph 1013mb 63f 61f
10:06 3 5 mph 1012.9mb 62f 61f
10:00 1 3 mph 1013mb 61f 61f
9:54 3 5 mph 1013mb 60f 61f
9:48 2 3 mph 1013mb 59f 61f
9:42 2 5 mph 1013mb 59f 61f
9:36 5 6 mph 1013mb 58f 61f
9:30 2 5 mph 1013mb 58f 61f
9:24 3
mph
1012.9mb 58f 61f
9:18 3 5 mph 1012.8mb 60f 61f
9:12 3 5 mph 1012.7mb 61f 61f
9:06 3 5 mph 1012.7mb 61f 61f
9:00 3 5 mph 1012.6mb 61f 61f
8:54 2 5 mph 1012.6mb 62f 61f
8:48 3 5 mph 1012.6mb 61f 61f
8:42 2 3 mph 1012.6mb 60f 61f
8:36 3 6 mph 1012.5mb 59f 61f
8:30 3 6 mph 1012.6mb 59f 62f
8:24 5 6 mph 1012.5mb 59f 61f
8:18 5 8 mph 1012.4mb 60f 61f
8:12 8 9 mph 1012.3mb 60f 61f
8:06 5 6 mph 1012.3mb 60f 61f
8:00 6 7 mph 1012.3mb 59f 61f
7:54 5 6 mph 1012.3mb 58f 62f
7:48 6 7 mph 1012.2mb 58f 62f
7:42 3 7 mph 1012.2mb 58f 62f
7:36 6
mph
1012.2mb 57f 62f
7:30 3 6 mph 1012.1mb 57f 62f
7:24 6
mph
1012.1mb 57f 62f
7:18 6 7 mph 1012.1mb 56f 62f
7:12 3 7 mph 1012mb 56f 62f
7:06 7 8 mph 1012mb 56f 62f
7:00 6 7 mph 1012mb 56f 62f
6:54 5 7 mph 1012mb 56f 62f
6:48 3 8 mph 1012.1mb 55f 62f
6:42 7 8 mph 1012.1mb 56f 62f
6:36 6 7 mph 1012.1mb 56f 63f
6:30 5 6 mph 1012.1mb 56f 63f
6:24 6
mph
1012.1mb 56f 63f
6:18 6 8 mph 1012mb 56f 63f
6:12 5 7 mph 1012mb 56f 63f
6:06 6 8 mph 1012mb 57f 64f
6:00 6 7 mph 1012mb 58f 64f
5:54 5 7 mph 1011.9mb 59f 64f
5:48 3 6 mph 1012mb 59f 64f
5:42 6 7 mph 1011.9mb 59f 64f
5:36 3 6 mph 1011.9mb 59f 64f
5:30 5 8 mph 1011.9mb 59f 64f
5:24 7 8 mph 1011.9mb 59f 64f
5:18 6 7 mph 1011.9mb 60f 64f
5:12 6 8 mph 1011.9mb 60f 63f
5:06 7 8 mph 1011.9mb 60f 63f
5:00 7 8 mph 1011.9mb 60f 64f
4:54 6 7 mph 1011.9mb 61f 64f
4:48 8 9 mph 1011.9mb 60f 64f
4:42 7 8 mph 1011.9mb 61f 64f
4:36 8
mph
1011.9mb 61f 64f
4:30 6 8 mph 1011.9mb 61f 64f
4:24 6 10 mph 1011.9mb 60f 64f
4:18 7 10 mph 1011.9mb 61f 64f
4:12 8 9 mph 1012mb 61f 63f
4:06 7 10 mph 1012mb 61f 64f
4:00 6 8 mph 1012mb 61f 64f
3:54 7 9 mph 1012mb 61f 64f
3:48 6 9 mph 1012.1mb 61f 64f
3:42 8 10 mph 1012.1mb 61f 64f
3:36 6 9 mph 1012.1mb 61f 64f
3:30 6 9 mph 1012.2mb 61f 64f
3:24 8 10 mph 1012.2mb 61f 63f
3:18 6 11 mph 1012.3mb 61f 63f
3:12 9 11 mph 1012.3mb 61f 63f
3:06 9 10 mph 1012.3mb 61f 63f
3:00 8 10 mph 1012.3mb 61f 63f
2:54 9 10 mph 1012.4mb 61f 63f
2:48 9 10 mph 1012.4mb 61f 63f
2:42 7 9 mph 1012.5mb 61f 63f
2:36 8 10 mph 1012.5mb 61f 63f
2:30 7 9 mph 1012.5mb 62f 63f
2:24 7 10 mph 1012.5mb 63f 63f
2:18 8 9 mph 1012.5mb - -
2:12 8
mph
1012.6mb 63f 63f
2:06 7 9 mph 1012.6mb 63f 63f
2:00 7 9 mph 1012.7mb 64f 63f
1:54 6 8 mph 1012.7mb 64f 63f
1:48 7 8 mph 1012.7mb 64f 63f
1:42 7 8 mph 1012.8mb 63f 62f
1:36 8 9 mph 1012.9mb 63f 62f
1:30 7 8 mph 1012.9mb 63f 63f
1:24 7 8 mph 1013mb 63f 63f
1:18 7 8 mph 1013.1mb 63f 63f
1:12 7 8 mph 1013.2mb 63f 62f
1:06 6 7 mph 1013.2mb 63f 62f
1:00 6 8 mph 1013.2mb 63f 62f
12:54 7 8 mph 1013.3mb 63f 62f
12:48 6 7 mph 1013.4mb 63f 62f
12:42 6 7 mph 1013.5mb 63f 62f
12:36 6 7 mph 1013.6mb 63f 62f
12:30 5 6 mph 1013.7mb 62f 62f
12:24 5 6 mph 1013.8mb 63f 62f
12:18 3 5 mph 1013.9mb 63f 62f
12:12 3 5 mph 1013.9mb 62f 61f
12:06 3 6 mph 1014mb 62f 61f
12:00 6 7 mph 1014mb 62f 61f
11:54 5 6 mph 1014.1mb 62f 61f
11:48 3 6 mph 1014.2mb 62f 61f
11:42 5 6 mph 1014.3mb 62f 61f
11:36 6
mph
1014.4mb 62f 61f
11:30 6 8 mph 1014.4mb 62f 60f
11:24 6 8 mph 1014.5mb 62f 60f
11:18 5 6 mph 1014.6mb 62f 60f
11:12 5 8 mph 1014.7mb 62f 60f
11:06 7 8 mph 1014.8mb 62f 60f
11:00 6 9 mph 1014.8mb 62f 60f
10:54 3 8 mph 1014.7mb 62f 60f
10:48 8 9 mph 1014.7mb 62f 59f
10:42 7 9 mph 1014.7mb 61f 60f
10:36 8 11 mph 1014.7mb 59f 60f
10:30 9 11 mph 1014.8mb 56f 60f
10:24 8 10 mph 1014.8mb 54f 60f
10:18 7 9 mph 1014.8mb 54f 61f
10:12 5 7 mph 1014.8mb 53f 62f
10:06 2 5 mph 1014.8mb 54f 62f
10:00 3 6 mph 1014.7mb 54f 61f
9:54 5 6 mph 1014.7mb 54f 61f
9:48 3 6 mph 1014.7mb 54f 60f
9:42 6 7 mph 1014.7mb 55f 60f
9:36 6 7 mph 1014.7mb 55f 60f
9:30 5 6 mph 1014.7mb 55f 61f
9:24 5 6 mph 1014.7mb 55f 61f
9:18 5 7 mph 1014.7mb 55f 62f
9:12 2 3 mph 1014.7mb 55f 63f
9:06 2 5 mph 1014.7mb 55f 62f
9:00 5 6 mph 1014.7mb 56f 61f
8:54 5 6 mph 1014.8mb 56f 61f
8:48 3 5 mph 1014.7mb 56f 61f
8:42 2 5 mph 1014.8mb 56f 61f
8:36 5 6 mph 1014.8mb 57f 61f
8:30 5 6 mph 1014.8mb 58f 61f
8:24 2 3 mph 1014.8mb 59f 61f
8:18 2 5 mph 1014.8mb 60f 61f
8:12 5 6 mph 1014.8mb 60f 61f
8:06 3
mph
1014.8mb 60f 61f
8:00 2 3 mph 1014.8mb 60f 61f
7:54 2
mph
1014.8mb 59f 61f
7:36 2 3 mph 1014.7mb 58f 60f
7:30 3
mph
1014.6mb 58f 60f
7:18 3 5 mph 1014.5mb 60f 60f
7:12 3 5 mph 1014.5mb 60f 60f
7:06 2 3 mph 1014.5mb 60f 60f
7:00 2
mph
1014.5mb 60f 60f
6:54 1 3 mph 1014.5mb 60f 60f
6:48 2 3 mph 1014.4mb 60f 60f
6:42 1 5 mph 1014.3mb 60f 59f
6:36 3 5 mph 1014.2mb 60f 59f
6:30 3 6 mph 1014.2mb 60f 59f
6:24 5 6 mph 1014.2mb 60f 59f
6:18 3 6 mph 1014.1mb 60f 60f
6:12 6
mph
1014.1mb 60f 59f
6:06 3 6 mph 1014mb 61f 60f
6:00 3 5 mph 1013.9mb 61f 60f
5:54 2 3 mph 1013.8mb 61f 60f
5:48  -  3 mph 1013.8mb 61f 60f
5:42 2 3 mph 1013.8mb 61f 60f
5:36 2 5 mph 1013.7mb 61f 60f
5:30  -  3 mph 1013.7mb 61f 60f
5:24 3 5 mph 1013.7mb 61f 60f
5:18 5
mph
1013.7mb 61f 60f
5:12 1 5 mph 1013.6mb 61f 60f
5:06 3 5 mph 1013.6mb 61f 60f
5:00 3 5 mph 1013.6mb 61f 60f
4:54 1 2 mph 1013.7mb 61f 60f
4:48 2 6 mph 1013.8mb 61f 60f
4:42 5 6 mph 1013.8mb 61f 60f
4:36 2 3 mph 1013.9mb 60f 60f
4:30  -  3 mph 1013.8mb 60f 60f
4:24 3
mph
1013.8mb 60f 60f
4:18 1 2 mph 1013.8mb 59f 60f
4:12  -  2 mph 1013.8mb 59f 60f
4:06 1 2 mph 1013.9mb 59f 60f
4:00 1 2 mph 1013.8mb 59f 60f
3:54 2
mph
1013.9mb 59f 60f
3:48 1 2 mph 1013.9mb 58f 60f
3:42 1 2 mph 1013.9mb 58f 60f
3:36 1
mph
1013.9mb 57f 60f
3:30  -  1 mph 1013.9mb 58f 60f
3:24 1 2 mph 1014mb 58f 60f
3:18  -  1 mph 1014mb 58f 60f
3:12  -  2 mph 1014mb 58f 60f
3:06 2 3 mph 1014mb 58f 60f
3:00 3 5 mph 1014mb 58f 60f
2:54 3 5 mph 1014.1mb 58f 60f
2:48 2
mph
1014mb 58f 60f
2:42 2
mph
1014.1mb 59f 60f
2:36 1 2 mph 1014.1mb 60f 61f
2:30 1 2 mph 1014.1mb 61f 61f
2:24 2
mph
1014.1mb 61f 61f
2:18 2
mph
1014.1mb 61f 61f
2:12 2 3 mph 1014.2mb 62f 61f
2:06 2 3 mph 1014.2mb 62f 61f
2:00 2 3 mph 1014.3mb 62f 61f
1:54  -  5 mph 1014.4mb 62f 61f
1:48 5 6 mph 1014.4mb 62f 61f
1:42 3 5 mph 1014.5mb 62f 61f
1:36 3 5 mph 1014.5mb 61f 61f
1:30 2 3 mph 1014.5mb 61f 61f
1:24  -  1 mph 1014.6mb 62f 61f
1:18 1
mph
1014.6mb 61f 61f
1:12 1
mph
1014.7mb 62f 61f
1:06  -  2 mph 1014.7mb 62f 61f
1:00 1 2 mph 1014.8mb 62f 61f
12:54 1 2 mph 1014.8mb 62f 61f
12:48 1 2 mph 1014.8mb 63f 61f
12:42 1 2 mph 1014.8mb 63f 61f
12:36 2
mph
1014.8mb 63f 61f
12:30 2
mph
1014.9mb 64f 61f
12:24 2 3 mph 1014.9mb 64f 62f
12:18 3 5 mph 1014.8mb 64f 62f
12:12 2 3 mph 1014.9mb 65f 62f
12:06 3 5 mph 1014.9mb 65f 62f
12:00 3
mph
1014.8mb 65f 62f
Sa 04/18 11:54 2
mph
1014.9mb 64f 62f
11:48 2
mph
1014.9mb 64f 62f
11:42  -  3 mph 1014.9mb 64f -
11:30 1 2 mph 1014.8mb 64f 62f
11:18  -  3 mph 1014.9mb 64f 62f
11:12  -  mph - - 62f
10:54 2 3 mph 1014.9mb 65f 62f
10:48 2 6 mph 1015mb 65f 62f
10:42 3 5 mph 1015mb 65f 62f
10:36 2 5 mph 1015mb 65f 62f
10:30 3 6 mph 1015mb 64f 62f
10:24 2 6 mph 1015.1mb 64f 62f
10:18 5 7 mph 1015.1mb 64f 62f
10:12 2 5 mph 1015.1mb 63f 62f
10:06 3 6 mph 1015mb 62f 62f
10:00 3 6 mph 1015mb 60f 62f
9:54 3 5 mph 1014.9mb 60f 62f
9:48 3 5 mph 1014.9mb - 62f
9:42 3 5 mph 1014.9mb - 62f
9:36 3 5 mph 1014.9mb - 62f
9:30 5 6 mph 1014.9mb - 62f
9:24 5 6 mph 1014.9mb - 62f
9:18 5
mph
- - -
9:12 5 6 mph 1014.8mb 54f 62f
9:06 3 5 mph 1014.7mb 54f 62f
9:00 3 5 mph 1014.6mb 54f 63f
8:54 3 5 mph 1014.6mb 54f 63f
8:48 3 5 mph 1014.6mb 54f 63f
8:42 5
mph
1014.6mb 54f 62f
8:36 5 6 mph 1014.5mb 54f 63f
8:30 5 6 mph 1014.4mb 54f 63f
8:24 5 6 mph 1014.3mb 54f 63f
8:18 5 6 mph 1014.2mb 54f 63f
8:12 3 5 mph 1014.2mb 54f 63f
8:06 3 5 mph 1014.1mb 54f 63f
8:00 5 6 mph 1014.1mb 54f 63f
7:54 5 6 mph 1014mb 54f 63f
7:48 5 6 mph 1013.9mb 54f 63f
7:42 5 6 mph 1013.9mb 54f 63f
7:36 5 6 mph 1013.8mb 54f 64f
7:30 3 5 mph 1013.7mb 54f 64f
7:24 5 6 mph 1013.7mb 55f 64f
7:18 5 6 mph 1013.8mb 55f 64f
7:12 5 6 mph 1013.7mb 55f 64f
7:06 6 7 mph 1013.8mb 55f 64f
7:00 6 7 mph 1013.9mb 55f 64f
6:48 7
mph
1013.8mb 56f 64f
6:42 7 8 mph 1013.8mb 56f 64f
6:36 7
mph
1013.8mb 56f 65f
6:30 7
mph
1013.8mb 56f 64f
6:24 7 8 mph 1013.8mb 57f 65f
6:18 7 8 mph 1013.7mb 58f -
6:12 6 7 mph 1013.7mb 58f 65f
6:06 7 8 mph 1013.8mb 58f 65f
6:00 7
mph
1013.8mb 58f 65f
5:54 7
mph
1013.7mb 59f 65f
5:48 6 8 mph 1013.7mb 59f 65f
5:42 7 8 mph 1013.8mb 60f 65f
5:36 6 7 mph 1013.9mb 60f 65f
5:30 6 7 mph 1013.9mb 61f 65f
5:24 6 7 mph 1014mb 62f 66f
5:18 6 7 mph 1014mb 62f 65f
5:12 6 7 mph 1014mb 62f 65f
5:06 6 7 mph 1014.1mb 62f 66f
5:00 7 8 mph 1014mb 62f 65f
4:54 6 7 mph 1014mb 62f 66f
4:48 7
mph
1014mb 62f 66f
4:42 6 7 mph 1014mb 62f 66f
4:36 6 7 mph 1014mb 62f 66f
4:30 5 6 mph 1014mb 62f 67f
4:24 6
mph
1014mb 62f 66f
4:18 6
mph
1014mb 63f 66f
4:12 5 6 mph 1014mb 63f 67f
4:06 5 6 mph 1014mb 63f 67f
4:00 5 6 mph 1014mb 63f 68f
3:54 5 6 mph 1014mb 65f 69f
3:48 3 5 mph 1014mb 65f 69f
3:42 3 5 mph 1014.1mb 65f 69f
3:36 3 5 mph 1014.2mb 65f 69f
3:30 5
mph
1014.2mb 65f 68f
3:24 5 6 mph 1014.3mb 65f 67f
3:18 3 6 mph 1014.3mb 65f 68f
3:12 5 6 mph 1014.4mb 65f 68f
3:06 5 6 mph 1014.5mb 65f 68f
3:00 3 5 mph 1014.6mb 65f 69f
2:54 2 5 mph 1014.7mb 65f 68f
2:48 2 3 mph 1014.7mb 65f 69f
2:42 3 5 mph 1014.7mb 65f 68f
2:36 3 5 mph 1014.8mb 65f 67f
2:30 3 5 mph 1014.8mb 65f 67f
2:24 3 5 mph 1014.9mb 65f 66f
2:18 3 5 mph 1015mb 65f 66f
2:12 5
mph
1015.1mb 65f 66f
2:06 5
mph
1015.2mb 64f 65f
2:00 5 6 mph 1015.2mb 65f 66f
1:54 3 5 mph 1015.3mb 64f 66f
1:48 5
mph
1015.3mb 64f 66f
1:42 2 3 mph 1015.3mb 64f 66f
1:36 2 3 mph 1015.4mb 64f 66f
1:30 2 3 mph 1015.4mb 64f 66f
1:24 2 3 mph 1015.4mb 64f 66f
1:18 2 3 mph 1015.4mb 63f 66f
1:12 2
mph
1015.4mb 63f 66f
1:06 2
mph
1015.5mb 63f 66f
1:00 2 3 mph 1015.5mb 63f 66f
12:54 3
mph
1015.6mb 63f 65f
12:48 3 5 mph 1015.7mb 63f 65f
12:42 5
mph
1015.8mb 63f 64f
12:36 3 5 mph 1015.9mb 63f 64f
12:30 3 5 mph 1015.9mb 63f 64f
12:24 5 6 mph 1016.1mb 62f 64f
12:18 6 7 mph 1016.2mb 62f 64f
12:12 6 8 mph 1016.4mb 62f 64f
12:00 6 7 mph 1016.5mb 62f 64f
11:54 6 7 mph 1016.6mb 62f 64f
11:48 6 7 mph 1016.6mb 62f 64f
11:42 6 7 mph 1016.6mb 62f 64f
11:36 7 9 mph 1016.6mb 62f 64f
11:30 8 9 mph 1016.6mb 62f 64f
11:24 9 10 mph 1016.7mb 62f 64f
11:18 9 10 mph 1016.7mb 62f 64f
11:12 9 11 mph 1016.8mb 62f 63f
11:06 10 13 mph 1016.7mb 61f 63f
11:00 11 13 mph 1016.8mb 61f 63f
10:54 11 13 mph 1016.8mb 61f 63f
10:48 9 10 mph 1016.7mb 59f 63f
10:42 9 10 mph 1016.7mb 57f 63f
10:36 9 10 mph 1016.8mb 54f 63f
10:30 8 9 mph 1016.9mb 55f 63f
10:24 8 9 mph 1016.9mb 54f 63f
10:18 6 8 mph 1016.8mb 55f 63f
10:12 7
mph
1016.9mb 56f 64f
10:06 5 7 mph 1016.9mb 55f 63f
10:00 7 8 mph 1016.9mb 58f 63f
9:54 8
mph
1016.8mb 56f 63f
9:48 6 7 mph 1016.7mb 58f 64f
9:42 5
mph
1016.6mb 58f 64f
9:36 3 5 mph 1016.6mb 58f 64f
9:30 5
mph
1016.6mb 56f 64f
9:24 3 5 mph 1016.6mb 56f 63f
9:18 3 5 mph 1016.6mb 58f 63f
9:12 3 5 mph 1016.6mb 60f 63f
9:06 5
mph
1016.6mb 60f 63f
9:00 3 5 mph 1016.6mb 60f 63f
8:54 3 6 mph 1016.4mb 60f 63f
8:48 6
mph
1016.5mb 59f 63f
8:42 3 5 mph 1016.6mb 59f 64f
8:36 1 2 mph 1016.6mb 59f 66f
8:30 2
mph
1016.6mb 59f 66f
8:24  -  3 mph 1016.5mb 58f 68f
8:18 2 3 mph 1016.5mb 58f 66f
8:12 3 6 mph 1016.5mb 58f 65f
8:06 6 7 mph 1016.5mb 58f 64f
8:00 6 7 mph 1016.5mb 58f 64f
7:54 7 8 mph 1016.5mb 57f 63f
7:48 7 8 mph 1016.4mb 57f 62f
7:42 7 8 mph 1016.4mb 57f 62f
7:36 7 8 mph 1016.5mb 58f 61f
7:30 9 10 mph 1016.5mb 58f 61f
7:24 10 11 mph 1016.5mb 58f 60f
7:18 9 11 mph 1016.4mb 58f 60f
7:12 11
mph
1016.4mb 58f 60f
7:06 9 10 mph 1016.4mb 58f 59f
7:00 9 10 mph 1016.4mb 58f 59f
6:54 8 9 mph 1016.3mb 58f 59f
6:48 8 11 mph 1016.3mb 58f 58f
6:42 10 11 mph 1016.3mb 57f 58f
6:36 10 11 mph 1016.2mb 57f 58f
6:30 9 11 mph 1016.2mb 57f 58f
6:24 9 10 mph 1016.2mb 58f 57f
6:18 7 9 mph 1016.1mb 58f 58f
6:12 7
mph
1016.1mb 58f 59f
6:06 3 5 mph 1016mb 58f 60f
6:00 3
mph
1016mb 58f 60f
5:54 3
mph
1016mb 58f 60f
5:48 2 3 mph 1016.1mb 57f 60f
5:42 3 5 mph 1016.1mb 57f 60f
5:36 5 6 mph 1016.1mb 57f 59f
5:30 5 6 mph 1016.2mb 56f 59f
5:24 5 7 mph 1016.1mb 56f 58f
5:18 5 6 mph 1016mb 56f 60f
5:12 2 6 mph 1016mb 56f 59f
5:06 5 6 mph 1016mb 56f 60f
5:00 6 7 mph 1016.1mb 56f 59f
4:54 5 6 mph 1016.1mb 56f 59f
4:48 6 9 mph 1016mb 56f 60f
4:42 3 5 mph 1016.1mb 56f 62f
4:36 3
mph
1015.9mb 56f 62f
4:30 2 3 mph 1016mb 56f 61f
4:24 2 5 mph 1015.9mb 56f 61f
4:18 3 5 mph 1015.8mb 56f 61f
4:12 3
mph
1015.7mb 56f 61f
4:06 2 3 mph 1015.7mb 56f 61f
4:00 2
mph
1015.7mb 56f 61f
3:54 2 3 mph 1015.8mb 56f 61f
3:48 1 2 mph 1015.9mb 57f 61f
3:42 2 3 mph 1015.9mb 57f 62f
3:36 2 3 mph 1015.8mb 57f 62f
3:30 2 3 mph 1015.8mb 57f 62f
3:24 2
mph
1015.7mb 57f 62f
3:18 2
mph
1015.7mb 57f 61f
3:12 2
mph
1015.7mb 58f 61f
3:06 2
mph
1015.7mb 58f 61f
3:00  -  2 mph 1015.8mb 58f 61f
2:54 1 3 mph 1015.9mb 58f 62f
2:48 2
mph
1016mb 58f 62f
2:42 2 3 mph 1016.1mb 59f 62f
2:36 3
mph
1016mb 60f 62f
2:30 2
mph
1016.2mb 61f 62f
2:24 2 3 mph 1016.2mb 62f 62f
2:18 2
mph
1016.2mb 62f 61f
2:12 2 3 mph 1016.2mb 62f 61f
2:06  -  2 mph 1016.3mb 62f 62f
2:00  -  2 mph 1016.3mb 61f 62f
1:54  -  1 mph 1016.4mb 61f 62f
1:48  -  1 mph - - -
1:42 1 2 mph 1016.5mb 61f 62f
1:36 2 3 mph 1016.6mb 61f 62f
1:30 3
mph
1016.7mb 62f 62f
1:24 3
mph
1016.8mb 63f 63f
1:18 2 3 mph 1016.9mb 63f 62f
1:12 2 5 mph 1016.9mb 64f 62f
1:06 3 5 mph 1016.9mb 64f 62f
1:00 1 3 mph 1017mb 64f 62f
12:54 3 7 mph 1017mb 64f 62f
12:48 7
mph
1017.1mb 64f 62f
12:42 2 5 mph 1017mb 64f 63f
12:36 5
mph
1016.9mb 64f 63f
12:30 2 3 mph 1016.9mb 64f 62f
12:24 1 3 mph 1016.9mb 64f 62f
12:18 2 3 mph 1017mb 64f 63f
12:12 3 5 mph 1016.9mb 64f 63f
12:06 5
mph
1016.9mb 64f 63f
12:00 5
mph
1016.9mb 64f 63f
Fr 04/17 11:48 2 3 mph 1016.9mb 64f 63f
11:42 3 5 mph 1016.8mb 64f 64f
11:24 5 7 mph 1016.8mb 64f 64f
11:12 7 8 mph 1016.7mb 64f 64f
10:54 6
mph
1016.7mb 64f 64f
10:48 6 8 mph 1016.6mb 64f 65f
10:42 6
mph
1016.7mb 64f 64f
10:30 6 8 mph 1016.8mb 63f 65f
10:24 7 8 mph 1016.7mb 63f 65f
10:18 7 8 mph 1016.7mb 63f 64f
10:12 8 9 mph 1016.6mb 62f 64f
10:06 8 9 mph 1016.6mb 62f 65f
10:00 8 9 mph 1016.7mb 62f 65f
9:54 7 9 mph 1016.6mb 61f 65f
9:48 8 9 mph 1016.6mb 62f 65f
9:36 7
mph
1016.5mb 59f 65f
9:30 6 7 mph 1016.6mb 56f 65f
9:24 6 8 mph 1016.6mb 56f 65f
9:18 7 8 mph 1016.7mb 54f 65f
9:12 7 8 mph 1016.6mb 54f 65f
8:54 8 9 mph 1016.4mb 55f 65f
8:48 8 10 mph 1016.4mb 55f 65f
8:42 9
mph
1016.3mb 56f 66f
8:36 8 9 mph 1016.3mb 55f 66f
8:30 7 8 mph 1016.2mb 55f 66f
8:24 7 8 mph 1016.1mb 55f 66f
8:18 7 8 mph 1016mb 56f 66f
8:12 8 9 mph 1016mb 56f 66f
8:06 8 9 mph 1015.9mb 56f 66f
8:00 7 8 mph 1015.9mb 56f 65f
7:54 5 7 mph 1015.9mb 57f 65f
7:48 7 9 mph 1015.8mb 57f 65f
7:42 2 5 mph 1015.7mb 57f 65f
7:36 3 6 mph 1015.6mb 58f 65f
7:30 6 7 mph 1015.5mb 60f 65f
7:24 6 7 mph 1015.4mb 60f 65f
7:18 6
mph
1015.4mb 60f 65f
7:12 5 7 mph 1015.4mb 60f 66f
7:06 6 8 mph 1015.3mb 61f 65f
7:00 7 8 mph 1015.2mb 62f 66f
6:54 8 9 mph 1015.1mb 61f 65f
6:48 7 9 mph 1015.1mb 62f 66f
6:42 8 9 mph 1015mb 64f 66f
6:36 6 8 mph 1015mb 64f 66f
6:30 6 8 mph 1015mb 65f 66f
6:24 6 8 mph 1015mb 66f 66f
6:18 6 8 mph 1015mb 65f 66f
6:12 6 7 mph 1014.9mb 65f 66f
6:06 7 9 mph 1014.8mb 65f 66f
6:00 7 8 mph 1014.8mb 65f 66f
5:54 7 8 mph 1014.8mb 65f 66f
5:48 7
mph
1014.9mb 65f 66f
5:42 7 8 mph 1014.8mb 64f 66f
5:36 8
mph
1014.8mb 65f 66f
5:30 7 8 mph 1014.8mb 64f 66f
5:24 7 8 mph 1014.8mb 66f 66f
5:18 6 9 mph 1014.8mb 65f 66f
5:12 7 8 mph 1014.8mb 64f 66f
5:06 6 7 mph 1014.8mb 64f 66f
5:00 6 8 mph 1014.8mb 63f 66f
4:54 7 9 mph 1014.8mb 62f 66f
4:48 8 9 mph 1014.8mb 62f 66f
4:42 7 8 mph 1014.8mb 62f 66f
4:36 6 8 mph 1014.9mb 62f 66f
4:30 3 5 mph 1015mb 61f 67f
4:24 2 3 mph 1015.1mb 61f 67f
4:18 3
mph
1015.1mb 60f 67f
4:12 2
mph
1015.1mb 59f 68f
4:06 2 5 mph 1015.1mb 58f 68f
4:00 3 6 mph 1015.1mb 58f 67f
3:54 5 6 mph 1015.1mb 57f 67f
3:48 5 6 mph 1015mb 57f 67f